Terminal Aerodrome Forecast
Issued by NWS Boston, MA

Current Version | Previous Version | Text Only | Print | Product List | Glossary On
Versions: 1 2 3 4 5 6 7 8 9 10 11 12 13 14 15 16 17 18 19 20 21 22 23 24 25 26 27 28 29 30 31 32 33 34 35 36 37 38 39 40 41 42 43 44 45 46 47 48 49 50
000 FTUS41 KBOX 300305 AAA TAFPVD TAF AMD KPVD 300305Z 3003/3024 16006KT P6SM FEW010 SCT250 FM300600 21004KT P6SM FEW002 BKN010 FM300800 21004KT 3SM BR FEW002 BKN010 FM301300 21007KT P6SM BKN120 FM301500 20010G20KT P6SM BKN120 FM302000 20014G29KT P6SM SCT150=

USA.gov is the U.S. government's official web portal to all federal, state and local government web resources and services.